sensor_id;sensor_type;location;lat;lon;timestamp;temperature;humidity
20866;DHT22;10593;48.398;10.698;2023-05-02T00:00:37;14.80;58.60
20866;DHT22;10593;48.398;10.698;2023-05-02T00:03:03;14.80;58.50
20866;DHT22;10593;48.398;10.698;2023-05-02T00:05:30;14.80;58.60
20866;DHT22;10593;48.398;10.698;2023-05-02T00:07:56;14.80;58.60
20866;DHT22;10593;48.398;10.698;2023-05-02T00:10:21;14.70;58.40
20866;DHT22;10593;48.398;10.698;2023-05-02T00:12:47;14.70;58.40
20866;DHT22;10593;48.398;10.698;2023-05-02T00:15:13;14.70;58.40
20866;DHT22;10593;48.398;10.698;2023-05-02T00:17:40;14.70;58.40
20866;DHT22;10593;48.398;10.698;2023-05-02T00:20:08;14.70;58.40
20866;DHT22;10593;48.398;10.698;2023-05-02T00:22:34;14.70;58.40
20866;DHT22;10593;48.398;10.698;2023-05-02T00:25:00;14.70;58.20
20866;DHT22;10593;48.398;10.698;2023-05-02T00:27:26;14.60;58.10
20866;DHT22;10593;48.398;10.698;2023-05-02T00:29:52;14.60;58.00
20866;DHT22;10593;48.398;10.698;2023-05-02T00:32:18;14.60;58.00
20866;DHT22;10593;48.398;10.698;2023-05-02T00:34:44;14.60;58.00
20866;DHT22;10593;48.398;10.698;2023-05-02T00:37:09;14.60;58.00
20866;DHT22;10593;48.398;10.698;2023-05-02T00:39:35;14.50;57.90
20866;DHT22;10593;48.398;10.698;2023-05-02T00:42:01;14.50;58.00
20866;DHT22;10593;48.398;10.698;2023-05-02T00:44:27;14.50;58.00
20866;DHT22;10593;48.398;10.698;2023-05-02T00:46:56;14.50;57.90
20866;DHT22;10593;48.398;10.698;2023-05-02T00:49:23;14.40;57.70
20866;DHT22;10593;48.398;10.698;2023-05-02T00:51:49;14.40;57.60
20866;DHT22;10593;48.398;10.698;2023-05-02T00:54:14;14.40;57.60
20866;DHT22;10593;48.398;10.698;2023-05-02T00:56:40;14.40;57.60
20866;DHT22;10593;48.398;10.698;2023-05-02T00:59:08;14.40;57.70
20866;DHT22;10593;48.398;10.698;2023-05-02T01:02:56;14.30;57.60
20866;DHT22;10593;48.398;10.698;2023-05-02T01:05:10;14.30;57.70
20866;DHT22;10593;48.398;10.698;2023-05-02T01:10:59;14.30;57.70
20866;DHT22;10593;48.398;10.698;2023-05-02T01:13:32;14.30;57.80
20866;DHT22;10593;48.398;10.698;2023-05-02T01:16:01;14.20;57.70
20866;DHT22;10593;48.398;10.698;2023-05-02T01:18:31;14.20;57.70
20866;DHT22;10593;48.398;10.698;2023-05-02T01:21:05;14.20;57.80
20866;DHT22;10593;48.398;10.698;2023-05-02T01:26:34;14.10;58.00
20866;DHT22;10593;48.398;10.698;2023-05-02T01:29:08;14.10;58.00
20866;DHT22;10593;48.398;10.698;2023-05-02T01:31:43;14.10;58.00
20866;DHT22;10593;48.398;10.698;2023-05-02T01:34:12;14.10;58.00
20866;DHT22;10593;48.398;10.698;2023-05-02T01:36:42;14.10;58.00
20866;DHT22;10593;48.398;10.698;2023-05-02T01:39:14;14.10;58.50
20866;DHT22;10593;48.398;10.698;2023-05-02T01:41:45;14.10;58.00
20866;DHT22;10593;48.398;10.698;2023-05-02T01:44:15;14.10;58.00
20866;DHT22;10593;48.398;10.698;2023-05-02T01:46:44;14.00;57.90
20866;DHT22;10593;48.398;10.698;2023-05-02T01:49:10;14.00;57.90
20866;DHT22;10593;48.398;10.698;2023-05-02T01:51:46;14.00;57.90
20866;DHT22;10593;48.398;10.698;2023-05-02T01:54:15;14.00;57.90
20866;DHT22;10593;48.398;10.698;2023-05-02T01:56:42;14.00;57.90
20866;DHT22;10593;48.398;10.698;2023-05-02T01:59:16;14.00;57.80
20866;DHT22;10593;48.398;10.698;2023-05-02T02:01:44;14.00;57.80
20866;DHT22;10593;48.398;10.698;2023-05-02T02:04:13;13.90;57.70
20866;DHT22;10593;48.398;10.698;2023-05-02T02:06:48;13.90;58.30
20866;DHT22;10593;48.398;10.698;2023-05-02T02:09:17;13.90;57.60
20866;DHT22;10593;48.398;10.698;2023-05-02T02:11:51;13.90;57.50
20866;DHT22;10593;48.398;10.698;2023-05-02T02:14:24;13.90;57.60
20866;DHT22;10593;48.398;10.698;2023-05-02T02:16:54;13.80;57.40
20866;DHT22;10593;48.398;10.698;2023-05-02T02:19:25;13.80;57.40
20866;DHT22;10593;48.398;10.698;2023-05-02T02:21:57;13.80;57.30
20866;DHT22;10593;48.398;10.698;2023-05-02T02:24:23;13.80;57.30
20866;DHT22;10593;48.398;10.698;2023-05-02T02:26:51;13.80;57.30
20866;DHT22;10593;48.398;10.698;2023-05-02T02:29:16;13.80;57.30
20866;DHT22;10593;48.398;10.698;2023-05-02T02:31:42;13.80;57.40
20866;DHT22;10593;48.398;10.698;2023-05-02T02:34:08;13.80;57.40
20866;DHT22;10593;48.398;10.698;2023-05-02T02:36:46;13.70;57.30
20866;DHT22;10593;48.398;10.698;2023-05-02T02:39:53;13.70;57.40
20866;DHT22;10593;48.398;10.698;2023-05-02T02:45:37;13.70;57.40
20866;DHT22;10593;48.398;10.698;2023-05-02T02:48:36;13.70;58.00
20866;DHT22;10593;48.398;10.698;2023-05-02T02:51:24;13.70;57.60
20866;DHT22;10593;48.398;10.698;2023-05-02T03:00:25;13.60;57.50
20866;DHT22;10593;48.398;10.698;2023-05-02T03:02:53;13.60;57.60
20866;DHT22;10593;48.398;10.698;2023-05-02T03:05:21;13.60;57.50
20866;DHT22;10593;48.398;10.698;2023-05-02T03:07:48;13.60;57.60
20866;DHT22;10593;48.398;10.698;2023-05-02T03:10:14;13.60;57.50
20866;DHT22;10593;48.398;10.698;2023-05-02T03:12:39;13.50;57.50
20866;DHT22;10593;48.398;10.698;2023-05-02T03:18:25;13.50;57.50
20866;DHT22;10593;48.398;10.698;2023-05-02T03:20:50;13.50;57.50
20866;DHT22;10593;48.398;10.698;2023-05-02T03:23:16;13.50;57.50
20866;DHT22;10593;48.398;10.698;2023-05-02T03:25:42;13.50;57.50
20866;DHT22;10593;48.398;10.698;2023-05-02T03:28:07;13.50;57.50
20866;DHT22;10593;48.398;10.698;2023-05-02T03:30:33;13.50;57.50
20866;DHT22;10593;48.398;10.698;2023-05-02T03:32:59;13.50;57.50
20866;DHT22;10593;48.398;10.698;2023-05-02T03:35:26;13.50;57.50
20866;DHT22;10593;48.398;10.698;2023-05-02T03:37:52;13.40;57.40
20866;DHT22;10593;48.398;10.698;2023-05-02T03:40:17;13.40;57.40
20866;DHT22;10593;48.398;10.698;2023-05-02T03:42:46;13.40;57.40
20866;DHT22;10593;48.398;10.698;2023-05-02T03:45:11;13.40;57.40
20866;DHT22;10593;48.398;10.698;2023-05-02T03:47:37;13.40;57.40
20866;DHT22;10593;48.398;10.698;2023-05-02T03:50:03;13.40;57.40
20866;DHT22;10593;48.398;10.698;2023-05-02T03:52:29;13.40;57.40
20866;DHT22;10593;48.398;10.698;2023-05-02T03:54:55;13.40;57.40
20866;DHT22;10593;48.398;10.698;2023-05-02T03:57:21;13.40;57.40
20866;DHT22;10593;48.398;10.698;2023-05-02T03:59:47;13.30;57.40
20866;DHT22;10593;48.398;10.698;2023-05-02T04:02:12;13.30;57.40
20866;DHT22;10593;48.398;10.698;2023-05-02T04:04:40;13.30;57.30
20866;DHT22;10593;48.398;10.698;2023-05-02T04:07:07;13.30;57.30
20866;DHT22;10593;48.398;10.698;2023-05-02T04:09:34;13.40;57.40
20866;DHT22;10593;48.398;10.698;2023-05-02T04:11:59;13.30;57.30
20866;DHT22;10593;48.398;10.698;2023-05-02T04:14:26;13.30;57.30
20866;DHT22;10593;48.398;10.698;2023-05-02T04:16:51;13.30;57.30
20866;DHT22;10593;48.398;10.698;2023-05-02T04:19:18;13.30;57.30
20866;DHT22;10593;48.398;10.698;2023-05-02T04:21:44;13.30;57.30
20866;DHT22;10593;48.398;10.698;2023-05-02T04:24:10;13.30;57.30
20866;DHT22;10593;48.398;10.698;2023-05-02T04:26:36;13.30;57.30
20866;DHT22;10593;48.398;10.698;2023-05-02T04:29:02;13.20;57.20
20866;DHT22;10593;48.398;10.698;2023-05-02T04:31:30;13.20;57.20
20866;DHT22;10593;48.398;10.698;2023-05-02T04:33:56;13.20;57.40
20866;DHT22;10593;48.398;10.698;2023-05-02T04:36:23;13.20;57.60
20866;DHT22;10593;48.398;10.698;2023-05-02T04:38:50;13.20;57.70
20866;DHT22;10593;48.398;10.698;2023-05-02T04:41:16;13.20;57.70
20866;DHT22;10593;48.398;10.698;2023-05-02T04:43:43;13.20;57.70
20866;DHT22;10593;48.398;10.698;2023-05-02T04:46:08;13.20;57.70
20866;DHT22;10593;48.398;10.698;2023-05-02T04:48:34;13.20;57.70
20866;DHT22;10593;48.398;10.698;2023-05-02T04:51:00;13.20;57.50
20866;DHT22;10593;48.398;10.698;2023-05-02T04:53:25;13.20;57.20
20866;DHT22;10593;48.398;10.698;2023-05-02T04:55:52;13.20;57.20
20866;DHT22;10593;48.398;10.698;2023-05-02T04:58:17;13.20;57.20
20866;DHT22;10593;48.398;10.698;2023-05-02T05:00:43;13.20;57.40
20866;DHT22;10593;48.398;10.698;2023-05-02T05:03:09;13.20;57.60
20866;DHT22;10593;48.398;10.698;2023-05-02T05:05:34;13.20;57.80
20866;DHT22;10593;48.398;10.698;2023-05-02T05:08:00;13.20;57.90
20866;DHT22;10593;48.398;10.698;2023-05-02T05:10:26;13.20;58.10
20866;DHT22;10593;48.398;10.698;2023-05-02T05:12:51;13.20;58.10
20866;DHT22;10593;48.398;10.698;2023-05-02T05:15:18;13.20;58.20
20866;DHT22;10593;48.398;10.698;2023-05-02T05:17:46;13.20;58.20
20866;DHT22;10593;48.398;10.698;2023-05-02T05:20:12;13.20;58.20
20866;DHT22;10593;48.398;10.698;2023-05-02T05:22:38;13.30;58.20
20866;DHT22;10593;48.398;10.698;2023-05-02T05:25:06;13.20;58.10
20866;DHT22;10593;48.398;10.698;2023-05-02T05:27:33;13.20;58.10
20866;DHT22;10593;48.398;10.698;2023-05-02T05:29:59;13.30;58.20
20866;DHT22;10593;48.398;10.698;2023-05-02T05:32:25;13.30;58.30
20866;DHT22;10593;48.398;10.698;2023-05-02T05:34:51;13.30;58.40
20866;DHT22;10593;48.398;10.698;2023-05-02T05:37:18;13.30;58.60
20866;DHT22;10593;48.398;10.698;2023-05-02T05:39:44;13.30;58.70
20866;DHT22;10593;48.398;10.698;2023-05-02T05:42:10;13.30;58.70
20866;DHT22;10593;48.398;10.698;2023-05-02T05:44:36;13.30;58.90
20866;DHT22;10593;48.398;10.698;2023-05-02T05:47:02;13.40;59.20
20866;DHT22;10593;48.398;10.698;2023-05-02T05:49:29;13.40;59.40
20866;DHT22;10593;48.398;10.698;2023-05-02T05:51:55;13.50;59.70
20866;DHT22;10593;48.398;10.698;2023-05-02T05:54:20;13.50;59.80
20866;DHT22;10593;48.398;10.698;2023-05-02T05:56:46;13.60;60.10
20866;DHT22;10593;48.398;10.698;2023-05-02T05:59:12;13.60;60.40
20866;DHT22;10593;48.398;10.698;2023-05-02T06:01:38;13.70;60.70
20866;DHT22;10593;48.398;10.698;2023-05-02T06:04:04;13.80;61.00
20866;DHT22;10593;48.398;10.698;2023-05-02T06:06:30;13.90;61.10
20866;DHT22;10593;48.398;10.698;2023-05-02T06:08:57;14.00;61.20
20866;DHT22;10593;48.398;10.698;2023-05-02T06:11:22;14.10;61.50
20866;DHT22;10593;48.398;10.698;2023-05-02T06:13:51;14.20;61.60
20866;DHT22;10593;48.398;10.698;2023-05-02T06:16:17;14.30;61.70
20866;DHT22;10593;48.398;10.698;2023-05-02T06:18:44;14.40;61.80
20866;DHT22;10593;48.398;10.698;2023-05-02T06:21:10;14.50;61.60
20866;DHT22;10593;48.398;10.698;2023-05-02T06:23:36;14.60;61.50
20866;DHT22;10593;48.398;10.698;2023-05-02T06:26:03;14.70;61.50
20866;DHT22;10593;48.398;10.698;2023-05-02T06:28:30;14.70;61.60
20866;DHT22;10593;48.398;10.698;2023-05-02T06:31:03;14.80;61.70
20866;DHT22;10593;48.398;10.698;2023-05-02T06:33:30;14.90;62.10
20866;DHT22;10593;48.398;10.698;2023-05-02T06:35:57;14.90;62.20
20866;DHT22;10593;48.398;10.698;2023-05-02T06:38:24;15.00;62.10
20866;DHT22;10593;48.398;10.698;2023-05-02T06:40:50;15.10;62.40
20866;DHT22;10593;48.398;10.698;2023-05-02T06:43:16;15.20;62.60
20866;DHT22;10593;48.398;10.698;2023-05-02T06:45:43;15.30;62.60
20866;DHT22;10593;48.398;10.698;2023-05-02T06:48:09;15.30;62.50
20866;DHT22;10593;48.398;10.698;2023-05-02T06:50:36;15.40;62.40
20866;DHT22;10593;48.398;10.698;2023-05-02T06:53:03;15.50;62.40
20866;DHT22;10593;48.398;10.698;2023-05-02T06:55:29;15.50;62.20
20866;DHT22;10593;48.398;10.698;2023-05-02T06:57:55;15.60;62.00
20866;DHT22;10593;48.398;10.698;2023-05-02T07:00:21;15.60;61.80
20866;DHT22;10593;48.398;10.698;2023-05-02T07:02:47;15.60;61.70
20866;DHT22;10593;48.398;10.698;2023-05-02T07:05:14;15.70;61.80
20866;DHT22;10593;48.398;10.698;2023-05-02T07:07:41;15.70;61.50
20866;DHT22;10593;48.398;10.698;2023-05-02T07:10:08;15.80;61.40
20866;DHT22;10593;48.398;10.698;2023-05-02T07:12:34;15.80;61.40
20866;DHT22;10593;48.398;10.698;2023-05-02T07:15:00;15.70;61.30
20866;DHT22;10593;48.398;10.698;2023-05-02T07:17:26;15.80;61.30
20866;DHT22;10593;48.398;10.698;2023-05-02T07:19:52;15.70;61.00
20866;DHT22;10593;48.398;10.698;2023-05-02T07:22:19;15.80;61.00
20866;DHT22;10593;48.398;10.698;2023-05-02T07:24:45;15.80;60.90
20866;DHT22;10593;48.398;10.698;2023-05-02T07:27:11;15.80;60.70
20866;DHT22;10593;48.398;10.698;2023-05-02T07:29:38;15.80;60.70
20866;DHT22;10593;48.398;10.698;2023-05-02T07:32:04;15.90;61.10
20866;DHT22;10593;48.398;10.698;2023-05-02T07:34:31;15.80;61.40
20866;DHT22;10593;48.398;10.698;2023-05-02T07:36:57;15.90;61.20
20866;DHT22;10593;48.398;10.698;2023-05-02T07:39:23;15.90;61.00
20866;DHT22;10593;48.398;10.698;2023-05-02T07:41:53;15.90;61.00
20866;DHT22;10593;48.398;10.698;2023-05-02T07:44:19;15.90;60.80
20866;DHT22;10593;48.398;10.698;2023-05-02T07:46:45;15.90;60.80
20866;DHT22;10593;48.398;10.698;2023-05-02T07:49:12;15.90;61.00
20866;DHT22;10593;48.398;10.698;2023-05-02T07:51:38;15.90;60.90
20866;DHT22;10593;48.398;10.698;2023-05-02T07:54:20;15.90;60.90
20866;DHT22;10593;48.398;10.698;2023-05-02T07:56:46;15.90;60.90
20866;DHT22;10593;48.398;10.698;2023-05-02T07:59:13;16.00;60.80
20866;DHT22;10593;48.398;10.698;2023-05-02T08:01:39;16.00;60.80
20866;DHT22;10593;48.398;10.698;2023-05-02T08:04:06;16.00;60.70
20866;DHT22;10593;48.398;10.698;2023-05-02T08:06:32;15.90;60.70
20866;DHT22;10593;48.398;10.698;2023-05-02T08:08:58;16.00;60.60
20866;DHT22;10593;48.398;10.698;2023-05-02T08:11:24;15.90;60.10
20866;DHT22;10593;48.398;10.698;2023-05-02T08:13:53;16.00;59.70
20866;DHT22;10593;48.398;10.698;2023-05-02T08:16:19;16.00;59.60
20866;DHT22;10593;48.398;10.698;2023-05-02T08:18:45;16.00;59.60
20866;DHT22;10593;48.398;10.698;2023-05-02T08:21:11;15.90;59.50
20866;DHT22;10593;48.398;10.698;2023-05-02T08:23:39;16.00;59.60
20866;DHT22;10593;48.398;10.698;2023-05-02T08:26:05;16.00;59.60
20866;DHT22;10593;48.398;10.698;2023-05-02T08:28:31;16.00;59.60
20866;DHT22;10593;48.398;10.698;2023-05-02T08:30:56;15.90;59.50
20866;DHT22;10593;48.398;10.698;2023-05-02T08:33:22;16.00;59.60
20866;DHT22;10593;48.398;10.698;2023-05-02T08:35:48;16.00;59.60
20866;DHT22;10593;48.398;10.698;2023-05-02T08:38:14;16.00;59.60
20866;DHT22;10593;48.398;10.698;2023-05-02T08:40:39;16.00;59.60
20866;DHT22;10593;48.398;10.698;2023-05-02T08:43:05;15.90;59.50
20866;DHT22;10593;48.398;10.698;2023-05-02T08:45:36;16.00;59.60
20866;DHT22;10593;48.398;10.698;2023-05-02T08:48:09;16.00;59.60
20866;DHT22;10593;48.398;10.698;2023-05-02T08:50:40;16.00;59.60
20866;DHT22;10593;48.398;10.698;2023-05-02T08:53:10;16.00;59.50
20866;DHT22;10593;48.398;10.698;2023-05-02T08:55:38;16.00;59.40
20866;DHT22;10593;48.398;10.698;2023-05-02T08:58:06;16.00;59.60
20866;DHT22;10593;48.398;10.698;2023-05-02T09:00:37;16.00;59.40
20866;DHT22;10593;48.398;10.698;2023-05-02T09:03:32;16.00;59.20
20866;DHT22;10593;48.398;10.698;2023-05-02T09:08:32;16.00;59.00
20866;DHT22;10593;48.398;10.698;2023-05-02T09:10:59;16.00;59.30
20866;DHT22;10593;48.398;10.698;2023-05-02T09:18:54;16.10;59.10
20866;DHT22;10593;48.398;10.698;2023-05-02T09:21:23;16.00;59.30
20866;DHT22;10593;48.398;10.698;2023-05-02T09:24:18;16.10;59.50
20866;DHT22;10593;48.398;10.698;2023-05-02T09:27:00;16.10;59.20
20866;DHT22;10593;48.398;10.698;2023-05-02T09:29:28;16.10;58.90
20866;DHT22;10593;48.398;10.698;2023-05-02T09:32:02;16.10;59.00
20866;DHT22;10593;48.398;10.698;2023-05-02T09:34:29;16.20;59.00
20866;DHT22;10593;48.398;10.698;2023-05-02T09:36:56;16.20;58.80
20866;DHT22;10593;48.398;10.698;2023-05-02T09:39:27;16.20;58.80
20866;DHT22;10593;48.398;10.698;2023-05-02T09:41:54;16.20;59.30
20866;DHT22;10593;48.398;10.698;2023-05-02T09:44:25;16.20;58.70
20866;DHT22;10593;48.398;10.698;2023-05-02T09:46:53;16.20;58.20
20866;DHT22;10593;48.398;10.698;2023-05-02T09:49:40;16.20;58.40
20866;DHT22;10593;48.398;10.698;2023-05-02T09:52:13;16.20;58.30
20866;DHT22;10593;48.398;10.698;2023-05-02T09:54:40;16.30;58.40
20866;DHT22;10593;48.398;10.698;2023-05-02T09:57:06;16.30;58.40
20866;DHT22;10593;48.398;10.698;2023-05-02T09:59:32;16.30;58.60
20866;DHT22;10593;48.398;10.698;2023-05-02T10:02:00;16.40;58.50
20866;DHT22;10593;48.398;10.698;2023-05-02T10:04:30;16.40;58.50
20866;DHT22;10593;48.398;10.698;2023-05-02T10:06:57;16.40;58.40
20866;DHT22;10593;48.398;10.698;2023-05-02T10:09:25;16.40;58.50
20866;DHT22;10593;48.398;10.698;2023-05-02T10:11:53;16.50;58.50
20866;DHT22;10593;48.398;10.698;2023-05-02T10:14:22;16.50;58.30
20866;DHT22;10593;48.398;10.698;2023-05-02T10:16:59;16.50;58.00
20866;DHT22;10593;48.398;10.698;2023-05-02T10:20:04;16.60;58.20
20866;DHT22;10593;48.398;10.698;2023-05-02T10:22:35;16.60;57.80
20866;DHT22;10593;48.398;10.698;2023-05-02T10:25:02;16.60;57.90
20866;DHT22;10593;48.398;10.698;2023-05-02T10:27:31;16.70;57.50
20866;DHT22;10593;48.398;10.698;2023-05-02T10:29:58;16.70;57.40
20866;DHT22;10593;48.398;10.698;2023-05-02T10:32:27;16.80;58.00
20866;DHT22;10593;48.398;10.698;2023-05-02T10:34:56;16.80;57.80
20866;DHT22;10593;48.398;10.698;2023-05-02T10:37:28;16.80;58.00
20866;DHT22;10593;48.398;10.698;2023-05-02T10:39:58;16.90;57.90
20866;DHT22;10593;48.398;10.698;2023-05-02T10:42:25;16.90;57.60
20866;DHT22;10593;48.398;10.698;2023-05-02T10:44:51;17.00;57.60
20866;DHT22;10593;48.398;10.698;2023-05-02T10:47:20;17.00;57.20
20866;DHT22;10593;48.398;10.698;2023-05-02T10:50:01;17.10;57.30
20866;DHT22;10593;48.398;10.698;2023-05-02T10:52:35;17.10;56.60
20866;DHT22;10593;48.398;10.698;2023-05-02T10:55:19;17.20;56.80
20866;DHT22;10593;48.398;10.698;2023-05-02T11:00:31;17.30;56.70
20866;DHT22;10593;48.398;10.698;2023-05-02T11:02:58;17.30;56.90
20866;DHT22;10593;48.398;10.698;2023-05-02T11:05:25;17.30;56.80
20866;DHT22;10593;48.398;10.698;2023-05-02T11:10:39;17.40;55.90
20866;DHT22;10593;48.398;10.698;2023-05-02T11:13:05;17.40;56.10
20866;DHT22;10593;48.398;10.698;2023-05-02T11:17:58;17.50;56.70
20866;DHT22;10593;48.398;10.698;2023-05-02T11:20:24;17.50;56.70
20866;DHT22;10593;48.398;10.698;2023-05-02T11:22:50;17.50;56.20
20866;DHT22;10593;48.398;10.698;2023-05-02T11:25:29;17.60;55.70
20866;DHT22;10593;48.398;10.698;2023-05-02T11:27:55;17.60;55.10
20866;DHT22;10593;48.398;10.698;2023-05-02T11:30:43;17.60;54.80
20866;DHT22;10593;48.398;10.698;2023-05-02T11:33:13;17.60;54.20
20866;DHT22;10593;48.398;10.698;2023-05-02T11:35:42;17.60;54.30
20866;DHT22;10593;48.398;10.698;2023-05-02T11:38:11;17.60;54.20
20866;DHT22;10593;48.398;10.698;2023-05-02T11:40:37;17.60;54.20
20866;DHT22;10593;48.398;10.698;2023-05-02T11:43:18;17.70;53.70
20866;DHT22;10593;48.398;10.698;2023-05-02T11:45:46;17.70;53.50
20866;DHT22;10593;48.398;10.698;2023-05-02T11:48:15;17.70;53.60
20866;DHT22;10593;48.398;10.698;2023-05-02T11:50:42;17.70;53.40
20866;DHT22;10593;48.398;10.698;2023-05-02T11:53:14;17.70;53.50
20866;DHT22;10593;48.398;10.698;2023-05-02T11:55:49;17.80;53.80
20866;DHT22;10593;48.398;10.698;2023-05-02T11:58:22;17.90;53.20
20866;DHT22;10593;48.398;10.698;2023-05-02T12:00:50;17.90;53.40
20866;DHT22;10593;48.398;10.698;2023-05-02T12:03:32;18.00;53.50
20866;DHT22;10593;48.398;10.698;2023-05-02T12:06:12;18.00;53.00
20866;DHT22;10593;48.398;10.698;2023-05-02T12:08:41;18.10;52.80
20866;DHT22;10593;48.398;10.698;2023-05-02T12:11:08;18.20;52.60
20866;DHT22;10593;48.398;10.698;2023-05-02T12:13:34;18.20;51.80
20866;DHT22;10593;48.398;10.698;2023-05-02T12:16:00;18.20;51.90
20866;DHT22;10593;48.398;10.698;2023-05-02T12:18:27;18.20;51.70
20866;DHT22;10593;48.398;10.698;2023-05-02T12:20:54;18.30;52.50
20866;DHT22;10593;48.398;10.698;2023-05-02T12:23:23;18.30;51.40
20866;DHT22;10593;48.398;10.698;2023-05-02T12:25:50;18.40;52.00
20866;DHT22;10593;48.398;10.698;2023-05-02T12:28:17;18.40;52.30
20866;DHT22;10593;48.398;10.698;2023-05-02T12:30:46;18.50;52.20
20866;DHT22;10593;48.398;10.698;2023-05-02T12:33:13;18.50;51.60
20866;DHT22;10593;48.398;10.698;2023-05-02T12:35:41;18.50;51.80
20866;DHT22;10593;48.398;10.698;2023-05-02T12:38:19;18.60;51.70
20866;DHT22;10593;48.398;10.698;2023-05-02T12:40:54;18.60;50.50
20866;DHT22;10593;48.398;10.698;2023-05-02T12:43:22;18.70;50.30
20866;DHT22;10593;48.398;10.698;2023-05-02T12:45:48;18.70;50.30
20866;DHT22;10593;48.398;10.698;2023-05-02T12:48:24;18.70;50.10
20866;DHT22;10593;48.398;10.698;2023-05-02T12:50:52;18.70;50.40
20866;DHT22;10593;48.398;10.698;2023-05-02T12:53:41;18.80;50.70
20866;DHT22;10593;48.398;10.698;2023-05-02T12:56:10;18.80;50.70
20866;DHT22;10593;48.398;10.698;2023-05-02T12:58:44;18.80;50.90
20866;DHT22;10593;48.398;10.698;2023-05-02T13:01:13;18.90;50.20
20866;DHT22;10593;48.398;10.698;2023-05-02T13:03:40;18.80;49.60
20866;DHT22;10593;48.398;10.698;2023-05-02T13:06:07;18.90;49.40
20866;DHT22;10593;48.398;10.698;2023-05-02T13:08:34;18.90;49.40
20866;DHT22;10593;48.398;10.698;2023-05-02T13:11:01;18.90;49.30
20866;DHT22;10593;48.398;10.698;2023-05-02T13:13:28;19.00;49.20
20866;DHT22;10593;48.398;10.698;2023-05-02T13:15:55;19.00;49.10
20866;DHT22;10593;48.398;10.698;2023-05-02T13:18:20;19.00;48.90
20866;DHT22;10593;48.398;10.698;2023-05-02T13:20:46;19.00;49.50
20866;DHT22;10593;48.398;10.698;2023-05-02T13:23:12;19.00;49.20
20866;DHT22;10593;48.398;10.698;2023-05-02T13:25:37;19.00;49.00
20866;DHT22;10593;48.398;10.698;2023-05-02T13:28:03;19.10;49.10
20866;DHT22;10593;48.398;10.698;2023-05-02T13:30:29;19.10;49.20
20866;DHT22;10593;48.398;10.698;2023-05-02T13:32:55;19.10;49.40
20866;DHT22;10593;48.398;10.698;2023-05-02T13:35:23;19.10;49.50
20866;DHT22;10593;48.398;10.698;2023-05-02T13:37:50;19.20;49.40
20866;DHT22;10593;48.398;10.698;2023-05-02T13:40:16;19.20;49.70
20866;DHT22;10593;48.398;10.698;2023-05-02T13:42:41;19.20;49.60
20866;DHT22;10593;48.398;10.698;2023-05-02T13:45:07;19.30;49.00
20866;DHT22;10593;48.398;10.698;2023-05-02T13:47:33;19.30;48.40
20866;DHT22;10593;48.398;10.698;2023-05-02T13:49:59;19.30;48.40
20866;DHT22;10593;48.398;10.698;2023-05-02T13:52:25;19.30;48.50
20866;DHT22;10593;48.398;10.698;2023-05-02T13:54:50;19.30;48.20
20866;DHT22;10593;48.398;10.698;2023-05-02T13:57:16;19.30;48.30
20866;DHT22;10593;48.398;10.698;2023-05-02T13:59:42;19.30;47.90
20866;DHT22;10593;48.398;10.698;2023-05-02T14:02:07;19.30;47.70
20866;DHT22;10593;48.398;10.698;2023-05-02T14:04:33;19.20;47.50
20866;DHT22;10593;48.398;10.698;2023-05-02T14:06:58;19.20;47.30
20866;DHT22;10593;48.398;10.698;2023-05-02T14:09:24;19.20;47.20
20866;DHT22;10593;48.398;10.698;2023-05-02T14:11:50;19.20;47.10
20866;DHT22;10593;48.398;10.698;2023-05-02T14:14:16;19.20;47.00
20866;DHT22;10593;48.398;10.698;2023-05-02T14:16:41;19.20;47.20
20866;DHT22;10593;48.398;10.698;2023-05-02T14:19:07;19.20;47.50
20866;DHT22;10593;48.398;10.698;2023-05-02T14:21:33;19.20;47.30
20866;DHT22;10593;48.398;10.698;2023-05-02T14:23:59;19.20;47.10
20866;DHT22;10593;48.398;10.698;2023-05-02T14:26:24;19.20;46.80
20866;DHT22;10593;48.398;10.698;2023-05-02T14:28:50;19.10;46.70
20866;DHT22;10593;48.398;10.698;2023-05-02T14:31:17;19.10;47.00
20866;DHT22;10593;48.398;10.698;2023-05-02T14:33:42;19.10;47.20
20866;DHT22;10593;48.398;10.698;2023-05-02T14:36:08;19.10;47.20
20866;DHT22;10593;48.398;10.698;2023-05-02T14:38:34;19.10;47.30
20866;DHT22;10593;48.398;10.698;2023-05-02T14:40:59;19.10;47.40
20866;DHT22;10593;48.398;10.698;2023-05-02T14:43:27;19.10;47.10
20866;DHT22;10593;48.398;10.698;2023-05-02T14:45:53;19.10;46.80
20866;DHT22;10593;48.398;10.698;2023-05-02T14:48:18;19.10;46.70
20866;DHT22;10593;48.398;10.698;2023-05-02T14:50:44;19.10;47.50
20866;DHT22;10593;48.398;10.698;2023-05-02T14:53:10;19.10;46.90
20866;DHT22;10593;48.398;10.698;2023-05-02T14:55:37;19.10;46.90
20866;DHT22;10593;48.398;10.698;2023-05-02T14:58:07;19.20;46.90
20866;DHT22;10593;48.398;10.698;2023-05-02T15:00:35;19.20;46.40
20866;DHT22;10593;48.398;10.698;2023-05-02T15:03:04;19.20;46.20
20866;DHT22;10593;48.398;10.698;2023-05-02T15:05:30;19.20;46.10
20866;DHT22;10593;48.398;10.698;2023-05-02T15:07:56;19.20;46.20
20866;DHT22;10593;48.398;10.698;2023-05-02T15:10:22;19.20;46.20
20866;DHT22;10593;48.398;10.698;2023-05-02T15:12:47;19.20;46.20
20866;DHT22;10593;48.398;10.698;2023-05-02T15:15:18;19.20;46.10
20866;DHT22;10593;48.398;10.698;2023-05-02T15:17:49;19.20;46.20
20866;DHT22;10593;48.398;10.698;2023-05-02T15:20:15;19.10;46.10
20866;DHT22;10593;48.398;10.698;2023-05-02T15:22:41;19.10;46.10
20866;DHT22;10593;48.398;10.698;2023-05-02T15:25:07;19.10;46.20
20866;DHT22;10593;48.398;10.698;2023-05-02T15:27:33;19.10;46.30
20866;DHT22;10593;48.398;10.698;2023-05-02T15:29:59;19.10;46.40
20866;DHT22;10593;48.398;10.698;2023-05-02T15:32:27;19.10;46.30
20866;DHT22;10593;48.398;10.698;2023-05-02T15:34:53;19.00;46.20
20866;DHT22;10593;48.398;10.698;2023-05-02T15:37:19;19.00;46.40
20866;DHT22;10593;48.398;10.698;2023-05-02T15:39:45;19.00;46.50
20866;DHT22;10593;48.398;10.698;2023-05-02T15:42:11;19.00;46.50
20866;DHT22;10593;48.398;10.698;2023-05-02T15:44:37;18.90;46.60
20866;DHT22;10593;48.398;10.698;2023-05-02T15:47:03;18.90;46.60
20866;DHT22;10593;48.398;10.698;2023-05-02T15:49:29;18.90;46.80
20866;DHT22;10593;48.398;10.698;2023-05-02T15:51:58;18.80;47.10
20866;DHT22;10593;48.398;10.698;2023-05-02T15:54:24;18.80;47.20
20866;DHT22;10593;48.398;10.698;2023-05-02T15:56:50;18.80;47.40